createdAt,value
2019-05-22T00:03:26.778Z,50.30
2019-05-22T00:08:32.008Z,50.40
2019-05-22T00:13:39.246Z,50.30
2019-05-22T00:18:43.946Z,50.20
2019-05-22T00:23:49.121Z,50.20
2019-05-22T00:28:54.009Z,50.20
2019-05-22T00:34:00.319Z,50.30
2019-05-22T00:39:06.693Z,50.30
2019-05-22T00:44:14.150Z,50.20
2019-05-22T00:49:20.213Z,50.20
2019-05-22T00:54:54.424Z,50.10
2019-05-22T01:00:10.024Z,50.20
2019-05-22T01:05:15.993Z,50.20
2019-05-22T01:10:22.172Z,50.40
2019-05-22T01:15:26.912Z,50.20
2019-05-22T01:20:33.355Z,50.20
2019-05-22T01:25:39.156Z,50.20
2019-05-22T01:30:45.244Z,50.20
2019-05-22T01:36:03.855Z,50.30
2019-05-22T01:41:28.783Z,50.30
2019-05-22T01:46:34.348Z,50.20
2019-05-22T01:51:38.972Z,50.20
2019-05-22T01:56:46.003Z,50.20
2019-05-22T02:01:52.003Z,50.10
2019-05-22T02:06:58.314Z,50.10
2019-05-22T02:12:13.806Z,50.10
2019-05-22T02:17:22.434Z,50.10
2019-05-22T02:22:26.934Z,50.10
2019-05-22T02:27:31.298Z,50.20
2019-05-22T02:32:37.887Z,50.10
2019-05-22T02:37:42.937Z,50.10
2019-05-22T02:42:48.044Z,50.10
2019-05-22T02:47:53.865Z,50.10
2019-05-22T02:52:59.954Z,50.10
2019-05-22T02:58:06.112Z,50.10
2019-05-22T03:03:10.443Z,50.10
2019-05-22T03:08:15.152Z,50.10
2019-05-22T03:13:24.596Z,50.10
2019-05-22T03:18:28.948Z,50.10
2019-05-22T03:23:36.728Z,50.10
2019-05-22T03:28:41.466Z,50.10
2019-05-22T03:33:47.442Z,50.10
2019-05-22T03:38:51.967Z,50.10
2019-05-22T03:43:58.474Z,50.10
2019-05-22T03:49:04.858Z,50.10
2019-05-22T03:54:11.061Z,50.10
2019-05-22T03:59:15.884Z,50.80
2019-05-22T04:04:36.733Z,50.10
2019-05-22T04:09:44.412Z,50.10
2019-05-22T04:14:48.873Z,50.00
2019-05-22T04:19:53.599Z,50.00
2019-05-22T04:24:58.437Z,50.10
2019-05-22T04:30:04.194Z,50.00
2019-05-22T04:35:12.192Z,50.10
2019-05-22T04:40:27.413Z,50.20
2019-05-22T04:45:45.745Z,50.20
2019-05-22T04:50:50.173Z,50.20
2019-05-22T04:55:54.722Z,50.30
2019-05-22T05:00:59.245Z,50.30
2019-05-22T05:06:06.722Z,50.20
2019-05-22T05:11:10.966Z,50.20
2019-05-22T05:16:16.172Z,50.20
2019-05-22T05:21:20.776Z,50.20
2019-05-22T05:26:26.293Z,50.00
2019-05-22T05:31:30.829Z,49.90
2019-05-22T05:36:36.410Z,49.70
2019-05-22T05:41:41.303Z,49.50
2019-05-22T05:46:46.268Z,49.40
2019-05-22T05:51:50.630Z,49.20
2019-05-22T05:56:57.530Z,49.00
2019-05-22T06:02:02.504Z,48.80
2019-05-22T06:07:20.923Z,48.60
2019-05-22T06:12:25.647Z,48.60
2019-05-22T06:18:07.902Z,49.10
2019-05-22T06:23:29.520Z,48.40
2019-05-22T06:28:38.607Z,48.30
2019-05-22T06:33:43.049Z,48.30
2019-05-22T06:38:59.810Z,48.30
2019-05-22T06:44:33.955Z,48.30
2019-05-22T06:49:40.926Z,48.10
2019-05-22T06:54:45.820Z,47.90
2019-05-22T07:00:10.812Z,47.80
2019-05-22T07:04:57.081Z,47.80
2019-05-22T07:10:02.600Z,47.60
2019-05-22T07:15:18.329Z,47.40
2019-05-22T07:20:24.109Z,45.90
2019-05-22T07:25:29.855Z,45.90
2019-05-22T07:30:34.717Z,45.00
2019-05-22T07:36:04.693Z,44.20
2019-05-22T07:40:50.175Z,43.70
2019-05-22T07:45:53.790Z,43.80
2019-05-22T07:50:59.074Z,42.90
2019-05-22T07:56:08.327Z,42.80
2019-05-22T08:01:13.992Z,43.20
2019-05-22T08:06:19.390Z,42.50
2019-05-22T08:11:25.649Z,42.10
2019-05-22T08:16:30.145Z,42.80
2019-05-22T08:21:34.493Z,43.20
2019-05-22T08:26:53.342Z,43.40
2019-05-22T08:31:48.254Z,43.60
2019-05-22T08:36:53.452Z,43.80
2019-05-22T08:41:58.429Z,44.00
2019-05-22T08:47:02.850Z,44.00
2019-05-22T08:52:22.532Z,44.00
2019-05-22T08:57:16.026Z,44.10
2019-05-22T09:02:20.832Z,44.20
2019-05-22T09:07:25.923Z,44.30
2019-05-22T09:12:31.903Z,44.40
2019-05-22T09:17:36.828Z,44.30
2019-05-22T09:22:42.286Z,43.20
2019-05-22T09:27:47.467Z,42.00
2019-05-22T09:32:52.499Z,41.60
2019-05-22T09:37:57.688Z,41.70
2019-05-22T09:43:03.465Z,41.60
2019-05-22T09:48:08.120Z,41.50
2019-05-22T09:53:13.008Z,41.60
2019-05-22T09:58:17.503Z,41.40
2019-05-22T10:03:22.132Z,41.60
2019-05-22T10:08:27.077Z,41.60
2019-05-22T10:13:32.198Z,41.70
2019-05-22T10:18:37.058Z,41.50
2019-05-22T10:23:41.987Z,41.40
2019-05-22T10:28:46.731Z,41.60
2019-05-22T10:33:52.562Z,42.00
2019-05-22T10:38:57.039Z,42.20
2019-05-22T10:44:01.491Z,42.60
2019-05-22T10:49:05.930Z,43.00
2019-05-22T10:54:10.360Z,43.30
2019-05-22T10:59:14.957Z,42.90
2019-05-22T11:04:20.773Z,42.50
2019-05-22T11:09:25.457Z,42.30
2019-05-22T11:14:30.398Z,42.50
2019-05-22T11:19:36.547Z,42.30
2019-05-22T11:24:40.903Z,41.90
2019-05-22T11:29:45.523Z,41.50
2019-05-22T11:34:50.149Z,41.30
2019-05-22T11:39:54.784Z,41.00
2019-05-22T11:44:59.319Z,40.80
2019-05-22T11:50:05.884Z,41.40
2019-05-22T11:55:11.073Z,41.10
2019-05-22T12:00:18.412Z,40.60
2019-05-22T12:05:24.007Z,41.20
2019-05-22T12:10:29.197Z,41.80
2019-05-22T12:15:33.806Z,42.00
2019-05-22T12:20:38.172Z,42.20
2019-05-22T12:25:42.597Z,42.40
2019-05-22T12:30:48.090Z,42.60
2019-05-22T12:35:52.990Z,42.70
2019-05-22T12:40:58.394Z,42.90
2019-05-22T12:46:03.431Z,43.00
2019-05-22T12:51:07.855Z,43.10
2019-05-22T12:56:12.569Z,43.30
2019-05-22T13:01:18.642Z,43.40
2019-05-22T13:06:24.073Z,44.10
2019-05-22T13:11:28.507Z,43.60
2019-05-22T13:16:33.664Z,43.60
2019-05-22T13:21:39.445Z,43.60
2019-05-22T13:26:46.000Z,43.70
2019-05-22T13:31:52.628Z,43.60
2019-05-22T13:36:57.940Z,42.80
2019-05-22T13:42:02.685Z,42.60
2019-05-22T13:47:07.559Z,41.80
2019-05-22T13:52:13.055Z,41.30
2019-05-22T13:57:18.060Z,41.10
2019-05-22T14:02:27.082Z,41.00
2019-05-22T14:07:30.713Z,41.20
2019-05-22T14:12:35.506Z,41.50
2019-05-22T14:17:40.300Z,41.10
2019-05-22T14:22:44.766Z,41.40
2019-05-22T14:27:49.374Z,40.70
2019-05-22T14:32:55.207Z,41.00
2019-05-22T14:38:00.589Z,40.90
2019-05-22T14:43:24.546Z,41.00
2019-05-22T14:48:29.445Z,40.40
2019-05-22T14:53:35.703Z,40.80
2019-05-22T14:58:42.371Z,40.60
2019-05-22T15:03:47.238Z,40.30
2019-05-22T15:08:51.667Z,40.40
2019-05-22T15:13:56.867Z,40.30
2019-05-22T15:19:01.249Z,39.40
2019-05-22T15:24:06.441Z,39.40
2019-05-22T15:29:10.985Z,39.40
2019-05-22T15:34:17.667Z,39.00
2019-05-22T15:39:26.375Z,38.80
2019-05-22T15:44:31.761Z,37.50
2019-05-22T15:49:37.088Z,38.40
2019-05-22T15:54:42.412Z,39.10
2019-05-22T15:59:47.934Z,39.50
2019-05-22T16:04:52.643Z,40.00
2019-05-22T16:09:57.394Z,40.70
2019-05-22T16:15:02.312Z,41.30
2019-05-22T16:20:08.173Z,41.70
2019-05-22T16:25:13.062Z,42.10
2019-05-22T16:30:17.948Z,42.40
2019-05-22T16:35:44.292Z,42.80
2019-05-22T16:40:49.354Z,43.00
2019-05-22T16:45:54.366Z,43.20
2019-05-22T16:50:59.854Z,43.40
2019-05-22T16:56:05.435Z,43.60
2019-05-22T17:01:10.215Z,43.70
2019-05-22T17:06:15.797Z,43.90
2019-05-22T17:11:20.935Z,44.10
2019-05-22T17:16:27.379Z,44.20
2019-05-22T17:21:32.125Z,44.20
2019-05-22T17:26:38.121Z,43.80
2019-05-22T17:31:43.693Z,43.10
2019-05-22T17:36:48.150Z,43.40
2019-05-22T17:41:56.268Z,43.20
2019-05-22T17:47:01.370Z,43.70
2019-05-22T17:52:06.907Z,43.90
2019-05-22T17:57:11.639Z,44.10
2019-05-22T18:02:17.932Z,43.90
2019-05-22T18:07:22.937Z,44.00
2019-05-22T18:12:28.451Z,44.20
2019-05-22T18:17:38.596Z,44.30
2019-05-22T18:22:45.902Z,44.30
2019-05-22T18:27:51.238Z,44.40
2019-05-22T18:32:55.975Z,44.40
2019-05-22T18:38:04.383Z,44.50
2019-05-22T18:43:06.856Z,44.60
2019-05-22T18:48:11.278Z,44.50
2019-05-22T18:53:16.080Z,44.60
2019-05-22T18:58:20.592Z,44.70
2019-05-22T19:03:26.166Z,44.70
2019-05-22T19:08:31.106Z,44.90
2019-05-22T19:13:35.585Z,44.90
2019-05-22T19:18:40.342Z,44.90
2019-05-22T19:23:44.792Z,45.00
2019-05-22T19:28:49.293Z,45.00
2019-05-22T19:33:53.736Z,45.10
2019-05-22T19:38:58.479Z,45.20
2019-05-22T19:44:03.689Z,45.20
2019-05-22T19:49:08.560Z,45.30
2019-05-22T19:54:13.093Z,45.30
2019-05-22T19:59:19.167Z,45.40
2019-05-22T20:04:25.645Z,45.50
2019-05-22T20:09:31.178Z,45.50
2019-05-22T20:14:35.915Z,45.60
2019-05-22T20:19:40.692Z,44.00
2019-05-22T20:24:45.063Z,44.60
2019-05-22T20:29:49.448Z,44.90
2019-05-22T20:34:53.961Z,45.00
2019-05-22T20:39:58.402Z,45.80
2019-05-22T20:45:02.896Z,45.20
2019-05-22T20:50:10.764Z,45.30
2019-05-22T20:55:16.431Z,45.40
2019-05-22T21:00:23.411Z,45.40
2019-05-22T21:05:27.777Z,45.50
2019-05-22T21:10:32.473Z,45.60
2019-05-22T21:15:37.335Z,45.60
2019-05-22T21:20:54.310Z,45.60
2019-05-22T21:25:48.187Z,45.80
2019-05-22T21:30:54.766Z,45.70
2019-05-22T21:35:59.460Z,45.70
2019-05-22T21:41:05.068Z,45.80
2019-05-22T21:46:09.839Z,45.80
2019-05-22T21:51:14.902Z,45.90
2019-05-22T21:56:19.395Z,45.90
2019-05-22T22:01:25.528Z,45.90
2019-05-22T22:06:33.199Z,45.90
2019-05-22T22:11:37.727Z,45.90
2019-05-22T22:17:01.781Z,46.00
2019-05-22T22:22:06.959Z,46.60
2019-05-22T22:27:11.823Z,46.00
2019-05-22T22:32:17.883Z,46.00
2019-05-22T22:37:23.277Z,46.10
2019-05-22T22:42:29.793Z,46.10
2019-05-22T22:47:36.305Z,46.20
2019-05-22T22:52:42.784Z,46.20
2019-05-22T22:57:49.703Z,46.20
2019-05-22T23:02:56.487Z,46.30
2019-05-22T23:08:01.831Z,46.50
2019-05-22T23:13:07.194Z,46.30
2019-05-22T23:18:15.670Z,46.40
2019-05-22T23:23:19.489Z,46.30
2019-05-22T23:28:34.082Z,46.30
2019-05-22T23:33:31.347Z,46.40
2019-05-22T23:38:37.135Z,46.40
2019-05-22T23:43:43.095Z,46.40
2019-05-22T23:48:48.317Z,46.40
2019-05-22T23:53:53.396Z,46.40
2019-05-22T23:58:58.655Z,46.40
